Time;durP1;ratioP1;P1;durP2;ratioP2;P2;SDS_P1;SDS_P2;PMS_P1;PMS_P2;Temp;Humidity;BMP_temperature;BMP_pressure;BME280_temperature;BME280_humidity;BME280_pressure;Samples;Min_cycle;Max_cycle;Signal;HPM_P1;HPM_P2
2022/12/13 00:00:23;;;;;;;100.28;30.63;;;-7.30;99.90;;;;;;5058714;28;20115;-89
2022/12/13 00:02:49;;;;;;;113.75;33.70;;;-7.20;99.90;;;;;;5076463;28;20502;-89
2022/12/13 00:05:15;;;;;;;106.70;32.63;;;-7.10;99.90;;;;;;5064189;28;20032;-89
2022/12/13 00:07:40;;;;;;;113.80;33.33;;;-7.20;99.90;;;;;;5074425;28;20060;-89
2022/12/13 00:10:06;;;;;;;92.75;31.05;;;-7.30;99.90;;;;;;5056893;28;20028;-89
2022/12/13 00:12:32;;;;;;;105.90;32.20;;;-7.30;99.90;;;;;;5075560;28;20024;-89
2022/12/13 00:14:58;;;;;;;105.30;32.70;;;-7.30;99.90;;;;;;5055507;28;20379;-89
2022/12/13 00:17:24;;;;;;;95.47;32.55;;;-7.20;99.90;;;;;;5078553;28;20028;-89
2022/12/13 00:19:49;;;;;;;106.63;33.38;;;-7.20;99.90;;;;;;5066986;28;20029;-89
2022/12/13 00:22:18;;;;;;;107.97;30.80;;;-7.10;99.90;;;;;;5058853;28;20056;-89
2022/12/13 00:24:44;;;;;;;115.97;32.92;;;-7.00;99.90;;;;;;5073879;28;20124;-89
2022/12/13 00:27:09;;;;;;;113.40;32.72;;;-7.10;99.90;;;;;;5057171;28;20083;-89
2022/12/13 00:29:37;;;;;;;111.63;32.00;;;-7.10;99.90;;;;;;5074963;28;20021;-90
2022/12/13 00:32:03;;;;;;;100.10;32.63;;;-7.10;99.90;;;;;;5064397;28;20051;-89
2022/12/13 00:34:28;;;;;;;106.80;32.85;;;-7.10;99.90;;;;;;5075595;28;20020;-89
2022/12/13 00:36:54;;;;;;;106.72;30.38;;;-7.00;99.90;;;;;;5071513;28;20026;-89
2022/12/13 00:39:20;;;;;;;107.18;30.67;;;-7.10;99.90;;;;;;5068013;28;20092;-88
2022/12/13 00:41:46;;;;;;;101.05;31.05;;;-7.10;99.90;;;;;;5059702;28;20032;-89
2022/12/13 00:44:12;;;;;;;108.65;32.03;;;-7.10;99.90;;;;;;5063382;28;20096;-89
2022/12/13 00:46:41;;;;;;;112.80;31.55;;;-7.10;99.90;;;;;;5070318;28;20398;-89
2022/12/13 00:49:08;;;;;;;112.88;29.52;;;-7.10;99.90;;;;;;5076407;28;20115;-89
2022/12/13 00:51:34;;;;;;;97.93;29.20;;;-7.10;99.90;;;;;;5073545;28;20028;-89
2022/12/13 00:54:01;;;;;;;108.25;30.65;;;-7.00;99.90;;;;;;5055995;28;20058;-89
2022/12/13 00:56:28;;;;;;;116.43;34.22;;;-7.10;99.90;;;;;;5070927;28;20039;-89
2022/12/13 00:58:54;;;;;;;119.38;32.40;;;-7.10;99.90;;;;;;5057015;28;20029;-89
2022/12/13 01:01:26;;;;;;;108.88;31.83;;;-7.20;99.90;;;;;;5069168;28;20064;-89
2022/12/13 01:03:54;;;;;;;111.28;31.73;;;-7.30;99.90;;;;;;5075507;28;20078;-89
2022/12/13 01:06:23;;;;;;;101.72;31.08;;;-7.30;99.90;;;;;;5083286;28;20039;-89
2022/12/13 01:08:49;;;;;;;106.18;32.92;;;-7.20;99.90;;;;;;5078000;28;20184;-89
2022/12/13 01:11:16;;;;;;;98.07;30.90;;;-7.20;99.90;;;;;;5076175;28;20056;-89
2022/12/13 01:13:43;;;;;;;94.30;30.38;;;-7.10;99.90;;;;;;5072495;28;20504;-89
2022/12/13 01:16:11;;;;;;;109.43;31.85;;;-7.10;99.90;;;;;;5072460;28;20130;-90
2022/12/13 01:18:38;;;;;;;106.30;32.63;;;-7.10;99.90;;;;;;5075868;28;20036;-89
2022/12/13 01:21:14;;;;;;;102.95;31.90;;;-7.10;99.90;;;;;;5063731;28;20032;-88
2022/12/13 01:23:40;;;;;;;112.03;33.38;;;-7.10;99.90;;;;;;5053099;28;20032;-89
2022/12/13 01:26:11;;;;;;;99.60;31.17;;;-7.10;99.90;;;;;;5062028;28;20024;-89
2022/12/13 01:28:36;;;;;;;118.45;33.97;;;-7.10;99.90;;;;;;5077607;28;20476;-89
2022/12/13 01:31:08;;;;;;;112.10;32.05;;;-7.10;99.90;;;;;;5082698;28;20044;-89
2022/12/13 01:33:34;;;;;;;120.80;33.13;;;-7.10;99.90;;;;;;5090694;28;20488;-89
2022/12/13 01:36:01;;;;;;;115.68;34.00;;;-7.00;99.90;;;;;;5074892;28;20107;-87
2022/12/13 01:38:27;;;;;;;113.32;35.15;;;-7.00;99.90;;;;;;5083577;28;20492;-89
2022/12/13 01:40:57;;;;;;;112.15;32.33;;;-7.00;99.90;;;;;;5074175;28;20028;-88
2022/12/13 01:43:50;;;;;;;114.07;34.53;;;-6.90;99.90;;;;;;5072725;28;20137;-89
2022/12/13 01:46:17;;;;;;;104.80;32.80;;;-6.90;99.90;;;;;;5080119;28;20068;-89
2022/12/13 01:49:00;;;;;;;116.28;32.45;;;-7.00;99.90;;;;;;5073561;28;20043;-88
2022/12/13 01:51:39;;;;;;;109.35;32.10;;;-7.10;99.90;;;;;;5065140;28;20029;-89
2022/12/13 01:54:09;;;;;;;119.93;32.90;;;-7.10;99.90;;;;;;5068994;28;20361;-89
2022/12/13 01:56:40;;;;;;;116.00;31.80;;;-7.00;99.90;;;;;;5082033;28;20031;-89
2022/12/13 01:59:08;;;;;;;106.57;31.03;;;-7.00;99.90;;;;;;5070016;28;20034;-88
2022/12/13 02:01:34;;;;;;;111.60;32.05;;;-6.90;99.90;;;;;;5071456;28;20286;-89
2022/12/13 02:04:00;;;;;;;94.30;30.98;;;-6.90;99.90;;;;;;5074515;28;20028;-89
2022/12/13 02:06:34;;;;;;;106.25;31.17;;;-6.90;99.90;;;;;;5070599;28;20037;-89
2022/12/13 02:09:03;;;;;;;110.65;34.35;;;-6.90;99.90;;;;;;5068150;28;20035;-88
2022/12/13 02:11:29;;;;;;;97.78;32.00;;;-6.80;99.90;;;;;;5073168;28;20028;-89
2022/12/13 02:13:54;;;;;;;120.72;35.58;;;-6.80;99.90;;;;;;5053841;28;20025;-89
2022/12/13 02:17:00;;;;;;;124.50;34.38;;;-6.90;99.90;;;;;;5067425;28;20172;-89
2022/12/13 02:19:59;;;;;;;118.22;34.75;;;-6.90;99.90;;;;;;5073319;28;20430;-89
2022/12/13 02:22:43;;;;;;;111.82;33.40;;;-6.80;99.90;;;;;;5070213;28;20502;-87
2022/12/13 02:25:36;;;;;;;115.13;33.63;;;-6.80;99.90;;;;;;5065918;28;20112;-87
2022/12/13 02:28:21;;;;;;;109.32;32.75;;;-6.70;99.90;;;;;;5075911;28;20075;-86
2022/12/13 02:30:53;;;;;;;115.63;32.22;;;-6.80;99.90;;;;;;5060994;28;20051;-87
2022/12/13 02:33:35;;;;;;;112.28;33.40;;;-6.80;99.90;;;;;;5071813;28;20471;-87
2022/12/13 02:36:19;;;;;;;118.53;33.42;;;-6.90;99.90;;;;;;5073080;28;20031;-87
2022/12/13 02:38:55;;;;;;;106.88;31.95;;;-6.90;99.90;;;;;;5068442;28;20059;-88
2022/12/13 02:41:47;;;;;;;119.72;32.72;;;-7.00;99.90;;;;;;5071531;28;20025;-87
2022/12/13 02:44:21;;;;;;;114.43;33.33;;;-7.00;99.90;;;;;;5065447;28;20036;-87
2022/12/13 02:47:14;;;;;;;107.25;34.58;;;-6.90;99.90;;;;;;5065073;28;20048;-87
2022/12/13 02:49:45;;;;;;;124.10;34.35;;;-7.00;99.90;;;;;;5069105;28;20138;-87
2022/12/13 02:52:14;;;;;;;111.28;36.15;;;-6.90;99.90;;;;;;5072382;28;20074;-87
2022/12/13 02:54:40;;;;;;;117.93;35.30;;;-6.90;99.90;;;;;;5068136;28;20028;-87
2022/12/13 02:57:30;;;;;;;117.22;36.15;;;-7.00;99.90;;;;;;5050236;28;20047;-87
2022/12/13 02:59:59;;;;;;;95.68;32.78;;;-7.10;99.90;;;;;;5066553;28;20029;-87
2022/12/13 03:02:37;;;;;;;117.55;35.13;;;-7.10;99.90;;;;;;5070359;28;20037;-86
2022/12/13 03:08:07;;;;;;;131.88;39.28;;;-7.20;99.90;;;;;;5072650;28;20025;-87
2022/12/13 03:10:42;;;;;;;151.52;43.13;;;-7.10;99.90;;;;;;5052960;28;20033;-87
2022/12/13 03:13:36;;;;;;;137.52;39.67;;;-7.10;99.90;;;;;;5072202;28;20029;-87
2022/12/13 03:16:14;;;;;;;138.00;43.30;;;-7.10;99.90;;;;;;5063017;28;20020;-87
2022/12/13 03:18:40;;;;;;;152.95;46.00;;;-7.20;99.90;;;;;;5063836;28;20040;-87
2022/12/13 03:21:08;;;;;;;128.57;42.58;;;-7.20;99.90;;;;;;5072588;28;20030;-87
2022/12/13 03:23:35;;;;;;;105.88;35.53;;;-7.20;99.90;;;;;;5069207;28;20039;-87
2022/12/13 03:26:07;;;;;;;119.60;36.67;;;-7.10;99.90;;;;;;5086667;28;20024;-87
2022/12/13 03:28:34;;;;;;;121.28;36.53;;;-7.10;99.90;;;;;;5075126;28;20041;-86
2022/12/13 03:31:00;;;;;;;114.38;36.30;;;-7.10;99.90;;;;;;5065000;28;20494;-87
2022/12/13 03:33:25;;;;;;;106.72;36.25;;;-7.00;99.90;;;;;;5074205;28;20028;-87
2022/12/13 03:35:51;;;;;;;103.47;36.65;;;-7.00;99.90;;;;;;5076328;28;20020;-88
2022/12/13 03:38:18;;;;;;;108.32;34.00;;;-6.90;99.90;;;;;;5080993;28;20021;-88
2022/12/13 03:40:44;;;;;;;105.53;35.92;;;-7.00;99.90;;;;;;5080371;28;20545;-88
2022/12/13 03:43:10;;;;;;;104.75;33.25;;;-6.90;99.90;;;;;;5065176;28;20040;-88
2022/12/13 03:45:36;;;;;;;91.05;32.13;;;-7.00;99.90;;;;;;5074598;28;20404;-88
2022/12/13 03:48:01;;;;;;;100.97;33.42;;;-7.10;99.90;;;;;;5076162;28;20126;-87
2022/12/13 03:50:27;;;;;;;85.80;30.40;;;-7.20;99.90;;;;;;5062739;28;20020;-88
2022/12/13 03:53:00;;;;;;;85.32;30.42;;;-7.20;99.90;;;;;;5074589;28;20464;-88
2022/12/13 03:55:27;;;;;;;93.40;29.38;;;-7.10;99.90;;;;;;5064733;28;20388;-88
2022/12/13 03:57:53;;;;;;;86.47;29.17;;;-7.10;99.90;;;;;;5072390;28;20024;-88
2022/12/13 04:00:18;;;;;;;87.95;31.52;;;-7.10;99.90;;;;;;5057757;28;20027;-89
2022/12/13 04:02:44;;;;;;;94.65;31.02;;;-7.00;99.90;;;;;;5082117;28;20033;-88
2022/12/13 04:05:10;;;;;;;88.30;30.05;;;-7.00;99.90;;;;;;5066627;28;20029;-88
2022/12/13 04:07:35;;;;;;;90.22;29.35;;;-6.90;99.90;;;;;;5058549;28;20117;-88
2022/12/13 04:10:03;;;;;;;88.50;29.30;;;-7.00;99.90;;;;;;5072815;28;20036;-87
2022/12/13 04:15:14;;;;;;;87.85;27.23;;;-6.90;99.90;;;;;;5090201;28;20072;-89
2022/12/13 04:17:40;;;;;;;99.28;29.33;;;-6.90;99.90;;;;;;5057620;28;20021;-87
2022/12/13 04:20:06;;;;;;;88.50;29.35;;;-6.90;99.90;;;;;;5088519;28;20025;-89
2022/12/13 04:22:32;;;;;;;88.15;28.08;;;-6.80;99.90;;;;;;5057101;28;20129;-87
2022/12/13 04:24:57;;;;;;;94.45;27.25;;;-6.80;99.90;;;;;;5088936;28;20491;-88
2022/12/13 04:27:23;;;;;;;89.50;30.98;;;-6.90;99.90;;;;;;5075425;28;20472;-88
2022/12/13 04:29:48;;;;;;;91.25;29.95;;;-7.00;99.90;;;;;;5075607;28;20048;-88
2022/12/13 04:32:14;;;;;;;85.93;29.98;;;-7.00;99.90;;;;;;5075745;28;20021;-87
2022/12/13 04:34:40;;;;;;;89.95;29.83;;;-7.00;99.90;;;;;;5050695;28;20345;-88
2022/12/13 04:37:05;;;;;;;78.35;27.90;;;-7.10;99.90;;;;;;5075468;28;20028;-88
2022/12/13 04:39:31;;;;;;;102.80;31.33;;;-7.10;99.90;;;;;;5074536;28;20451;-88
2022/12/13 04:42:06;;;;;;;86.47;31.08;;;-7.00;99.90;;;;;;5075034;28;20028;-88
2022/12/13 04:44:32;;;;;;;93.25;32.17;;;-7.00;99.90;;;;;;5073172;28;20139;-88
2022/12/13 04:46:57;;;;;;;101.25;35.75;;;-6.90;99.90;;;;;;5075298;28;20050;-88
2022/12/13 04:49:23;;;;;;;91.95;32.70;;;-6.90;99.90;;;;;;5055453;28;20032;-89
2022/12/13 04:51:48;;;;;;;87.07;32.83;;;-6.90;99.90;;;;;;5061215;28;20040;-88
2022/12/13 04:54:14;;;;;;;90.65;31.80;;;-7.00;99.90;;;;;;5075303;28;20111;-88
2022/12/13 04:56:40;;;;;;;91.32;32.45;;;-7.00;99.90;;;;;;5075006;28;20044;-87
2022/12/13 04:59:05;;;;;;;78.68;29.33;;;-7.00;99.90;;;;;;5075181;28;20112;-88
2022/12/13 05:01:31;;;;;;;76.15;29.02;;;-7.00;99.90;;;;;;5072848;28;20025;-88
2022/12/13 05:03:57;;;;;;;81.28;30.20;;;-7.10;99.90;;;;;;5075003;28;20032;-88
2022/12/13 05:06:23;;;;;;;72.57;28.58;;;-7.10;99.90;;;;;;5073487;28;20042;-88
2022/12/13 05:08:48;;;;;;;82.57;31.05;;;-7.10;99.90;;;;;;5061639;28;20025;-88
2022/12/13 05:11:14;;;;;;;77.50;29.15;;;-7.10;99.90;;;;;;5068361;28;20033;-88
2022/12/13 05:13:40;;;;;;;86.55;28.80;;;-7.10;99.90;;;;;;5074149;28;20032;-88
2022/12/13 05:16:07;;;;;;;80.68;30.58;;;-7.20;99.90;;;;;;5069200;28;20475;-88
2022/12/13 05:18:35;;;;;;;79.80;29.20;;;-7.20;99.90;;;;;;5080297;28;20570;-87
2022/12/13 05:21:03;;;;;;;79.22;28.83;;;-7.20;99.90;;;;;;5073823;28;20024;-88
2022/12/13 05:23:29;;;;;;;85.35;29.80;;;-7.30;99.90;;;;;;5069361;28;20028;-88
2022/12/13 05:25:56;;;;;;;78.13;28.25;;;-7.30;99.90;;;;;;5073588;28;20115;-87
2022/12/13 05:28:25;;;;;;;76.93;28.00;;;-7.30;99.90;;;;;;5073143;28;20024;-88
2022/12/13 05:30:51;;;;;;;81.30;29.77;;;-7.40;99.90;;;;;;5070072;28;20430;-88
2022/12/13 05:33:17;;;;;;;77.35;28.95;;;-7.40;99.90;;;;;;5053676;28;20021;-88
2022/12/13 05:35:51;;;;;;;78.85;29.10;;;-7.50;99.90;;;;;;5078672;28;20104;-88
2022/12/13 05:38:23;;;;;;;74.22;27.00;;;-7.50;99.90;;;;;;5068266;28;20115;-88
2022/12/13 05:40:49;;;;;;;71.50;26.38;;;-7.50;99.90;;;;;;5073036;28;20025;-88
2022/12/13 05:43:23;;;;;;;75.53;27.45;;;-7.50;99.90;;;;;;5054544;28;20031;-88
2022/12/13 05:45:50;;;;;;;75.40;25.27;;;-7.30;99.90;;;;;;5058479;28;20082;-88
2022/12/13 05:48:15;;;;;;;68.32;26.88;;;-7.40;99.90;;;;;;5072948;28;20051;-88
2022/12/13 05:50:41;;;;;;;86.18;29.00;;;-7.40;99.90;;;;;;5059050;28;20020;-88
2022/12/13 05:53:07;;;;;;;72.40;28.02;;;-7.40;99.90;;;;;;5065309;28;20067;-88
2022/12/13 05:55:32;;;;;;;69.18;26.77;;;-7.50;99.90;;;;;;5054316;28;20036;-88
2022/12/13 05:57:58;;;;;;;74.60;26.40;;;-7.60;99.90;;;;;;5053507;28;20467;-88
2022/12/13 06:00:25;;;;;;;71.70;28.70;;;-7.60;99.90;;;;;;5052570;28;20085;-89
2022/12/13 06:02:50;;;;;;;74.78;28.50;;;-7.60;99.90;;;;;;5073209;28;20036;-88
2022/12/13 06:05:16;;;;;;;70.50;25.35;;;-7.70;99.90;;;;;;5079051;28;20464;-87
2022/12/13 06:07:42;;;;;;;73.13;26.85;;;-7.60;99.90;;;;;;5071209;28;20074;-88
2022/12/13 06:10:38;;;;;;;77.30;29.48;;;-7.50;99.90;;;;;;5052858;28;20036;-88
2022/12/13 06:13:05;;;;;;;75.35;27.08;;;-7.50;99.90;;;;;;5063673;28;20075;-88
2022/12/13 06:15:31;;;;;;;86.38;28.35;;;-7.50;99.90;;;;;;5058982;28;20064;-88
2022/12/13 06:17:58;;;;;;;84.25;27.63;;;-7.40;99.90;;;;;;5052736;28;20063;-88
2022/12/13 06:20:24;;;;;;;86.97;29.13;;;-7.40;99.90;;;;;;5068548;28;20040;-88
2022/12/13 06:22:51;;;;;;;84.18;29.15;;;-7.40;99.90;;;;;;5072376;28;20480;-88
2022/12/13 06:25:16;;;;;;;78.95;27.02;;;-7.40;99.90;;;;;;5070059;28;20028;-88
2022/12/13 06:27:42;;;;;;;77.20;27.50;;;-7.40;99.90;;;;;;5070785;28;20040;-88
2022/12/13 06:30:08;;;;;;;82.95;26.15;;;-7.50;99.90;;;;;;5072259;28;20028;-88
2022/12/13 06:32:35;;;;;;;80.95;27.58;;;-7.40;99.90;;;;;;5059375;28;20060;-88
2022/12/13 06:35:00;;;;;;;78.50;25.52;;;-7.40;99.90;;;;;;5089118;28;20043;-88
2022/12/13 06:37:26;;;;;;;72.43;27.15;;;-7.40;99.90;;;;;;5072340;28;20029;-88
2022/12/13 06:39:52;;;;;;;63.03;24.88;;;-7.40;99.90;;;;;;5077172;28;20123;-88
2022/12/13 06:42:18;;;;;;;72.25;25.50;;;-7.40;99.90;;;;;;5072545;28;20032;-88
2022/12/13 06:44:44;;;;;;;72.22;25.35;;;-7.40;99.90;;;;;;5053495;28;20032;-88
2022/12/13 06:47:11;;;;;;;70.10;26.00;;;-7.40;99.90;;;;;;5072486;28;20113;-88
2022/12/13 06:49:37;;;;;;;73.40;24.38;;;-7.30;99.90;;;;;;5062097;28;20043;-87
2022/12/13 06:52:03;;;;;;;77.03;23.23;;;-7.40;99.90;;;;;;5065023;28;20035;-88
2022/12/13 06:54:29;;;;;;;62.10;23.02;;;-7.50;99.90;;;;;;5080335;28;20047;-88
2022/12/13 06:56:54;;;;;;;78.70;26.38;;;-7.40;99.90;;;;;;5071631;28;20020;-87
2022/12/13 06:59:20;;;;;;;103.97;34.13;;;-7.50;99.90;;;;;;5068898;28;20115;-87
2022/12/13 07:01:46;;;;;;;124.15;37.03;;;-7.50;99.90;;;;;;5063676;28;20028;-87
2022/12/13 07:04:11;;;;;;;165.07;50.78;;;-7.50;99.90;;;;;;5040667;28;20476;-88
2022/12/13 07:06:37;;;;;;;70.72;23.65;;;-7.50;99.90;;;;;;5065596;28;20051;-88
2022/12/13 07:09:03;;;;;;;67.90;21.27;;;-7.50;99.90;;;;;;5067949;28;20068;-87
2022/12/13 07:11:32;;;;;;;58.78;20.38;;;-7.50;99.90;;;;;;5071737;28;20039;-87
2022/12/13 07:13:58;;;;;;;59.47;20.02;;;-7.50;99.90;;;;;;5069487;28;20055;-87
2022/12/13 07:16:24;;;;;;;62.85;21.88;;;-7.30;99.90;;;;;;5087426;28;20051;-87
2022/12/13 07:19:10;;;;;;;56.50;20.67;;;-7.30;99.90;;;;;;5054782;28;20020;-87
2022/12/13 07:21:37;;;;;;;66.18;19.25;;;-7.30;99.90;;;;;;5052382;28;20068;-87
2022/12/13 07:24:03;;;;;;;62.17;20.83;;;-7.30;99.90;;;;;;5065965;28;20032;-88
2022/12/13 07:26:29;;;;;;;57.85;20.30;;;-7.30;99.90;;;;;;5068184;28;20094;-87
2022/12/13 07:28:54;;;;;;;52.42;19.10;;;-7.20;99.90;;;;;;5055151;28;20487;-87
2022/12/13 07:31:20;;;;;;;52.60;18.90;;;-7.00;99.90;;;;;;5076572;28;20036;-88
2022/12/13 07:33:46;;;;;;;58.97;22.10;;;-7.00;99.90;;;;;;5084577;28;20017;-87
2022/12/13 07:36:14;;;;;;;53.35;20.95;;;-7.00;99.90;;;;;;5064350;28;20024;-87
2022/12/13 07:38:40;;;;;;;58.13;21.48;;;-7.10;99.90;;;;;;5072196;28;20029;-87
2022/12/13 07:41:06;;;;;;;55.05;21.25;;;-7.00;99.90;;;;;;5063628;28;20124;-88
2022/12/13 07:43:32;;;;;;;47.72;18.48;;;-7.00;99.90;;;;;;5066958;28;20020;-87
2022/12/13 07:46:00;;;;;;;61.63;20.25;;;-6.90;99.90;;;;;;5066944;28;20066;-88
2022/12/13 07:48:26;;;;;;;46.05;17.60;;;-6.90;99.90;;;;;;5049410;28;20036;-88
2022/12/13 07:51:20;;;;;;;55.15;19.17;;;-6.90;99.90;;;;;;5058430;28;20116;-87
2022/12/13 07:53:45;;;;;;;54.78;19.27;;;-6.90;99.90;;;;;;5086120;28;20115;-87
2022/12/13 07:56:26;;;;;;;48.20;17.17;;;-7.00;99.90;;;;;;5055640;28;20048;-87
2022/12/13 07:58:52;;;;;;;47.00;18.90;;;-6.90;99.90;;;;;;5052683;28;20029;-88
2022/12/13 08:01:18;;;;;;;50.67;19.17;;;-6.80;99.90;;;;;;5059170;28;20033;-87
2022/12/13 08:03:46;;;;;;;50.00;18.45;;;-6.80;99.90;;;;;;5066207;28;20495;-87
2022/12/13 08:06:12;;;;;;;48.45;17.05;;;-6.70;99.90;;;;;;5054345;28;20041;-87
2022/12/13 08:08:41;;;;;;;57.45;20.75;;;-6.70;99.90;;;;;;5067125;28;20036;-87
2022/12/13 08:11:09;;;;;;;53.22;18.45;;;-6.70;99.90;;;;;;5052682;28;20120;-88
2022/12/13 08:13:35;;;;;;;52.53;18.67;;;-6.70;99.90;;;;;;5055542;28;20036;-88
2022/12/13 08:16:07;;;;;;;43.97;17.13;;;-6.70;99.90;;;;;;5050716;28;20017;-87
2022/12/13 08:18:33;;;;;;;52.17;19.30;;;-6.50;99.90;;;;;;5072870;28;20032;-87
2022/12/13 08:20:59;;;;;;;54.15;18.88;;;-6.40;99.90;;;;;;5071247;28;20046;-87
2022/12/13 08:23:26;;;;;;;53.22;20.40;;;-6.30;99.90;;;;;;5073458;28;20423;-87
2022/12/13 08:25:53;;;;;;;44.90;20.00;;;-6.30;99.90;;;;;;5080175;28;20396;-88
2022/12/13 08:28:20;;;;;;;48.15;17.73;;;-6.30;99.90;;;;;;5069953;28;20052;-88
2022/12/13 08:30:47;;;;;;;46.72;18.27;;;-6.30;99.90;;;;;;5072466;28;20030;-87
2022/12/13 08:33:12;;;;;;;46.05;18.88;;;-6.30;99.90;;;;;;5066491;28;20025;-88
2022/12/13 08:35:38;;;;;;;53.88;18.05;;;-6.30;99.90;;;;;;5064639;28;20036;-87
2022/12/13 08:38:04;;;;;;;46.67;17.77;;;-6.30;99.90;;;;;;5076802;28;20079;-88
2022/12/13 08:40:30;;;;;;;48.40;18.08;;;-6.30;99.90;;;;;;5065574;28;20496;-88
2022/12/13 08:42:58;;;;;;;42.97;16.33;;;-6.30;99.90;;;;;;5074206;28;20036;-88
2022/12/13 08:45:25;;;;;;;54.03;20.27;;;-6.30;99.90;;;;;;5068692;28;20061;-87
2022/12/13 08:47:51;;;;;;;50.55;20.63;;;-6.30;99.90;;;;;;5071105;28;20032;-88
2022/12/13 08:50:17;;;;;;;55.53;20.67;;;-6.30;99.90;;;;;;5063482;28;20029;-88
2022/12/13 08:52:43;;;;;;;58.60;21.45;;;-6.20;99.90;;;;;;5068981;28;20033;-87
2022/12/13 08:55:11;;;;;;;50.50;20.23;;;-6.20;99.90;;;;;;5058745;28;20115;-88
2022/12/13 08:57:37;;;;;;;50.58;20.42;;;-6.20;99.90;;;;;;5060225;28;20048;-88
2022/12/13 09:00:19;;;;;;;49.58;18.85;;;-6.20;99.90;;;;;;5074011;28;20028;-88
2022/12/13 09:02:45;;;;;;;48.22;18.65;;;-6.20;99.90;;;;;;5075448;28;20096;-88
2022/12/13 09:05:11;;;;;;;44.97;18.58;;;-6.10;99.90;;;;;;5074572;28;20067;-88
2022/12/13 09:07:41;;;;;;;54.58;19.02;;;-6.10;99.90;;;;;;5072905;28;20528;-87
2022/12/13 09:10:11;;;;;;;50.60;18.42;;;-6.10;99.90;;;;;;5064501;28;20032;-88
2022/12/13 09:12:40;;;;;;;49.90;19.50;;;-6.00;99.90;;;;;;5061821;28;20044;-88
2022/12/13 09:15:06;;;;;;;40.45;16.75;;;-6.00;99.90;;;;;;5064970;28;20032;-87
2022/12/13 09:17:32;;;;;;;40.80;17.58;;;-6.00;99.90;;;;;;5089889;28;20040;-88
2022/12/13 09:19:58;;;;;;;44.20;16.63;;;-6.00;99.90;;;;;;5048341;28;20407;-88
2022/12/13 09:22:53;;;;;;;39.47;16.23;;;-6.00;99.90;;;;;;5073111;28;20392;-87
2022/12/13 09:25:19;;;;;;;50.92;16.52;;;-6.00;99.90;;;;;;5066073;28;20035;-88
2022/12/13 09:27:44;;;;;;;46.60;17.25;;;-6.00;99.90;;;;;;5057045;28;20028;-87
2022/12/13 09:30:11;;;;;;;41.33;15.45;;;-6.00;99.90;;;;;;5059393;28;20029;-87
2022/12/13 09:32:39;;;;;;;43.65;16.15;;;-6.00;99.90;;;;;;5053843;28;20055;-87
2022/12/13 09:35:06;;;;;;;42.97;16.35;;;-5.90;99.90;;;;;;5068356;28;20112;-87
2022/12/13 09:37:32;;;;;;;44.38;16.17;;;-5.90;99.90;;;;;;5068260;28;20036;-87
2022/12/13 09:39:57;;;;;;;41.17;16.95;;;-5.70;99.90;;;;;;5061444;28;20074;-87
2022/12/13 09:42:26;;;;;;;41.53;16.48;;;-5.50;99.90;;;;;;5070900;28;20107;-88
2022/12/13 09:44:55;;;;;;;36.35;15.45;;;-5.30;99.90;;;;;;5048473;28;20038;-87
2022/12/13 09:47:27;;;;;;;37.47;15.55;;;-5.10;99.90;;;;;;5070738;28;20028;-88
2022/12/13 09:49:53;;;;;;;38.58;16.27;;;-4.80;99.90;;;;;;5077638;28;20777;-88
2022/12/13 09:52:23;;;;;;;53.13;21.67;;;-4.60;99.90;;;;;;5078974;28;20032;-87
2022/12/13 09:54:56;;;;;;;35.25;14.57;;;-4.70;99.90;;;;;;5070149;28;20033;-88
2022/12/13 09:57:27;;;;;;;38.22;15.73;;;-4.70;99.90;;;;;;5078106;28;20135;-88
2022/12/13 09:59:54;;;;;;;38.40;14.27;;;-4.70;99.90;;;;;;5073855;28;20028;-87
2022/12/13 10:02:28;;;;;;;36.90;14.10;;;-4.80;99.90;;;;;;5072802;28;20434;-88
2022/12/13 10:05:15;;;;;;;31.65;13.45;;;-4.70;99.90;;;;;;5055693;28;20119;-88
2022/12/13 10:07:41;;;;;;;33.03;14.50;;;-4.60;99.90;;;;;;5085963;28;20029;-87
2022/12/13 10:10:12;;;;;;;31.50;13.98;;;-4.40;99.90;;;;;;5074444;28;20086;-88
2022/12/13 10:13:00;;;;;;;;;;;-4.30;99.90;;;;;;5093545;28;20039;-87
2022/12/13 10:15:27;;;;;;;26.85;12.52;;;-4.20;99.90;;;;;;5070179;28;19930;-87
2022/12/13 10:17:53;;;;;;;34.00;14.20;;;-4.20;99.90;;;;;;5071927;28;20055;-87
2022/12/13 10:20:20;;;;;;;39.33;15.43;;;-4.20;99.90;;;;;;5075200;28;20632;-88
2022/12/13 10:23:01;;;;;;;30.17;13.23;;;-4.20;99.90;;;;;;5068837;28;20092;-87
2022/12/13 10:25:54;;;;;;;29.55;14.30;;;-4.20;99.90;;;;;;5074228;28;20468;-88
2022/12/13 10:28:27;;;;;;;29.10;13.68;;;-4.20;99.90;;;;;;5079264;28;20036;-87
2022/12/13 10:30:54;;;;;;;31.00;12.35;;;-4.30;99.90;;;;;;5073260;28;20123;-87
2022/12/13 10:33:23;;;;;;;29.05;11.73;;;-4.30;99.90;;;;;;5073893;28;20039;-87
2022/12/13 10:36:14;;;;;;;30.83;12.73;;;-4.40;99.90;;;;;;5073341;28;20056;-87
2022/12/13 10:38:44;;;;;;;25.15;11.02;;;-4.50;99.90;;;;;;5054548;28;20056;-87
2022/12/13 10:41:31;;;;;;;26.65;12.25;;;-4.50;99.90;;;;;;5083847;28;20075;-87
2022/12/13 10:44:17;;;;;;;30.40;12.43;;;-4.50;99.90;;;;;;5058009;28;20036;-87
2022/12/13 10:46:57;;;;;;;29.35;13.25;;;-4.60;99.90;;;;;;5080643;28;20052;-87
2022/12/13 10:49:25;;;;;;;30.87;12.17;;;-4.60;99.90;;;;;;5077384;28;20369;-87
2022/12/13 10:52:20;;;;;;;30.15;12.07;;;-4.50;99.90;;;;;;5058900;28;20035;-87
2022/12/13 10:54:47;;;;;;;27.70;11.25;;;-4.50;99.90;;;;;;5081760;28;20110;-87
2022/12/13 10:57:13;;;;;;;25.02;10.40;;;-4.40;99.90;;;;;;5056841;28;20345;-87
2022/12/13 10:59:39;;;;;;;24.05;10.63;;;-4.40;99.90;;;;;;5062438;28;20036;-87
2022/12/13 11:02:27;;;;;;;26.02;11.35;;;-4.30;99.90;;;;;;5075581;28;20941;-88
2022/12/13 11:04:53;;;;;;;27.30;11.55;;;-4.20;99.90;;;;;;5060049;28;20466;-87
2022/12/13 11:07:31;;;;;;;24.63;10.40;;;-4.10;99.90;;;;;;5071892;28;20028;-87
2022/12/13 11:10:14;;;;;;;23.55;11.18;;;-4.20;99.90;;;;;;5065953;28;20033;-87
2022/12/13 11:12:41;;;;;;;23.27;10.93;;;-4.20;99.90;;;;;;5053774;28;20033;-88
2022/12/13 11:15:14;;;;;;;28.48;12.30;;;-4.20;99.90;;;;;;5079390;28;20024;-88
2022/12/13 11:17:55;;;;;;;45.33;18.33;;;-4.10;99.90;;;;;;5064925;28;20038;-87
2022/12/13 11:20:26;;;;;;;38.58;14.15;;;-4.00;99.90;;;;;;5053888;28;20025;-87
2022/12/13 11:23:22;;;;;;;39.00;15.90;;;-4.00;99.90;;;;;;5067325;28;20025;-88
2022/12/13 11:25:53;;;;;;;43.40;15.40;;;-4.10;99.90;;;;;;5048148;28;20924;-88
2022/12/13 11:28:38;;;;;;;33.10;14.25;;;-4.00;99.90;;;;;;5056801;28;20429;-88
2022/12/13 11:31:34;;;;;;;25.50;11.25;;;-3.90;99.90;;;;;;5052998;28;20036;-87
2022/12/13 11:34:22;;;;;;;24.05;10.02;;;-3.90;99.90;;;;;;5039878;28;20025;-87
2022/12/13 11:37:26;;;;;;;24.35;11.27;;;-3.80;99.90;;;;;;5050279;28;20035;-88
2022/12/13 11:40:01;;;;;;;22.13;10.80;;;-3.50;99.90;;;;;;5071783;28;20125;-88
2022/12/13 11:42:46;;;;;;;25.10;11.90;;;-3.30;99.90;;;;;;5054935;28;20047;-88
2022/12/13 11:45:39;;;;;;;26.40;11.10;;;-3.20;99.90;;;;;;5071062;28;20119;-88
2022/12/13 11:48:08;;;;;;;24.05;9.95;;;-3.20;99.90;;;;;;5077503;28;20032;-88
2022/12/13 11:50:40;;;;;;;18.58;9.68;;;-3.40;99.90;;;;;;5081751;28;20060;-87
2022/12/13 11:53:20;;;;;;;25.88;11.10;;;-3.70;99.90;;;;;;5071936;28;20108;-87
2022/12/13 11:56:19;;;;;;;23.85;10.75;;;-3.90;99.90;;;;;;5072397;28;20021;-87
2022/12/13 11:59:20;;;;;;;25.00;10.05;;;-4.10;99.90;;;;;;5048887;28;20111;-87
2022/12/13 12:01:54;;;;;;;24.17;11.13;;;-4.20;99.90;;;;;;5063733;28;20044;-87
2022/12/13 12:05:01;;;;;;;29.55;11.43;;;-4.30;99.90;;;;;;5070803;28;20116;-86
2022/12/13 12:07:53;;;;;;;39.78;11.98;;;-4.30;99.90;;;;;;4999110;28;20121;-87
2022/12/13 12:10:36;;;;;;;;;;;-4.40;99.90;;;;;;5001900;28;20049;-87
2022/12/13 12:13:12;;;;;;;28.20;10.82;;;-4.30;99.90;;;;;;5056158;28;19913;-87
2022/12/13 12:15:45;;;;;;;28.15;11.48;;;-4.40;99.90;;;;;;5081417;28;20024;-87
2022/12/13 12:18:16;;;;;;;22.77;9.85;;;-4.40;99.90;;;;;;5057744;28;20483;-87
2022/12/13 12:21:19;;;;;;;23.13;10.63;;;-4.40;99.90;;;;;;5064987;28;20483;-87
2022/12/13 12:23:53;;;;;;;25.40;10.55;;;-4.50;99.90;;;;;;5078872;28;20050;-87
2022/12/13 12:26:29;;;;;;;29.80;11.75;;;-4.50;99.90;;;;;;5067903;28;20024;-87
2022/12/13 12:29:43;;;;;;;25.90;10.77;;;-4.50;99.90;;;;;;5093964;28;20036;-87
2022/12/13 12:32:35;;;;;;;28.08;11.35;;;-4.40;99.90;;;;;;5073312;28;20036;-87
2022/12/13 12:35:39;;;;;;;22.17;9.25;;;-4.40;99.90;;;;;;5065214;28;20376;-88
2022/12/13 12:38:32;;;;;;;22.65;10.45;;;-4.40;99.90;;;;;;5085620;28;20056;-88
2022/12/13 12:41:13;;;;;;;25.65;11.77;;;-4.40;99.90;;;;;;5073269;28;20032;-88
2022/12/13 12:43:41;;;;;;;26.27;11.68;;;-4.40;99.90;;;;;;5072224;28;20035;-87
2022/12/13 12:46:25;;;;;;;20.30;9.90;;;-4.40;99.90;;;;;;5072605;28;20106;-87
2022/12/13 12:49:00;;;;;;;30.83;11.50;;;-4.50;99.90;;;;;;5071640;28;20028;-87
2022/12/13 12:51:51;;;;;;;20.35;9.32;;;-4.50;99.90;;;;;;5068807;28;20123;-87